sensor_id;sensor_type;location;lat;lon;timestamp;P1;durP1;ratioP1;P2;durP2;ratioP2
77888;SDS011;67082;41.704;44.768;2024-02-28T00:00:47;18.52;;;10.00;;
77888;SDS011;67082;41.704;44.768;2024-02-28T00:03:35;20.75;;;10.90;;
77888;SDS011;67082;41.704;44.768;2024-02-28T00:06:03;25.92;;;11.40;;
77888;SDS011;67082;41.704;44.768;2024-02-28T00:08:31;23.48;;;10.70;;
77888;SDS011;67082;41.704;44.768;2024-02-28T00:11:00;21.20;;;10.88;;
77888;SDS011;67082;41.704;44.768;2024-02-28T00:13:28;21.85;;;11.15;;
77888;SDS011;67082;41.704;44.768;2024-02-28T00:15:56;24.52;;;11.35;;
77888;SDS011;67082;41.704;44.768;2024-02-28T00:18:24;23.70;;;11.90;;
77888;SDS011;67082;41.704;44.768;2024-02-28T00:20:53;22.92;;;11.68;;
77888;SDS011;67082;41.704;44.768;2024-02-28T00:23:22;27.05;;;11.77;;
77888;SDS011;67082;41.704;44.768;2024-02-28T00:25:51;23.73;;;11.35;;
77888;SDS011;67082;41.704;44.768;2024-02-28T00:28:19;21.63;;;11.18;;
77888;SDS011;67082;41.704;44.768;2024-02-28T00:30:47;19.65;;;10.43;;
77888;SDS011;67082;41.704;44.768;2024-02-28T00:33:15;20.20;;;10.90;;
77888;SDS011;67082;41.704;44.768;2024-02-28T00:35:44;23.73;;;11.00;;
77888;SDS011;67082;41.704;44.768;2024-02-28T00:38:12;23.95;;;10.73;;
77888;SDS011;67082;41.704;44.768;2024-02-28T00:40:40;22.40;;;10.60;;
77888;SDS011;67082;41.704;44.768;2024-02-28T00:43:08;24.63;;;11.02;;
77888;SDS011;67082;41.704;44.768;2024-02-28T00:45:37;23.20;;;11.02;;
77888;SDS011;67082;41.704;44.768;2024-02-28T00:48:05;22.80;;;11.38;;
77888;SDS011;67082;41.704;44.768;2024-02-28T00:50:33;19.30;;;10.55;;
77888;SDS011;67082;41.704;44.768;2024-02-28T00:53:01;20.63;;;10.60;;
77888;SDS011;67082;41.704;44.768;2024-02-28T00:55:30;21.58;;;10.48;;
77888;SDS011;67082;41.704;44.768;2024-02-28T00:57:58;24.05;;;10.60;;
77888;SDS011;67082;41.704;44.768;2024-02-28T01:00:27;22.42;;;10.43;;
77888;SDS011;67082;41.704;44.768;2024-02-28T01:02:55;18.35;;;10.73;;
77888;SDS011;67082;41.704;44.768;2024-02-28T01:05:24;23.67;;;10.77;;
77888;SDS011;67082;41.704;44.768;2024-02-28T01:07:51;22.23;;;10.50;;
77888;SDS011;67082;41.704;44.768;2024-02-28T01:10:20;22.58;;;9.93;;
77888;SDS011;67082;41.704;44.768;2024-02-28T01:12:48;19.40;;;10.13;;
77888;SDS011;67082;41.704;44.768;2024-02-28T01:15:17;21.02;;;10.38;;
77888;SDS011;67082;41.704;44.768;2024-02-28T01:17:45;20.00;;;10.07;;
77888;SDS011;67082;41.704;44.768;2024-02-28T01:20:15;21.00;;;10.18;;
77888;SDS011;67082;41.704;44.768;2024-02-28T01:22:43;22.75;;;10.05;;
77888;SDS011;67082;41.704;44.768;2024-02-28T01:25:11;20.77;;;10.45;;
77888;SDS011;67082;41.704;44.768;2024-02-28T01:27:40;23.35;;;10.32;;
77888;SDS011;67082;41.704;44.768;2024-02-28T01:30:08;20.42;;;9.82;;
77888;SDS011;67082;41.704;44.768;2024-02-28T01:32:37;18.52;;;9.07;;
77888;SDS011;67082;41.704;44.768;2024-02-28T01:35:08;17.55;;;9.85;;
77888;SDS011;67082;41.704;44.768;2024-02-28T01:37:36;19.73;;;9.85;;
77888;SDS011;67082;41.704;44.768;2024-02-28T01:40:05;23.05;;;10.25;;
77888;SDS011;67082;41.704;44.768;2024-02-28T01:42:36;20.10;;;9.52;;
77888;SDS011;67082;41.704;44.768;2024-02-28T01:45:05;20.48;;;9.73;;
77888;SDS011;67082;41.704;44.768;2024-02-28T01:47:40;21.55;;;10.35;;
77888;SDS011;67082;41.704;44.768;2024-02-28T01:50:15;20.02;;;9.95;;
77888;SDS011;67082;41.704;44.768;2024-02-28T01:52:45;21.42;;;9.80;;
77888;SDS011;67082;41.704;44.768;2024-02-28T01:55:16;23.63;;;9.63;;
77888;SDS011;67082;41.704;44.768;2024-02-28T01:57:45;18.25;;;9.07;;
77888;SDS011;67082;41.704;44.768;2024-02-28T02:00:13;19.17;;;8.98;;
77888;SDS011;67082;41.704;44.768;2024-02-28T02:02:45;18.52;;;10.05;;
77888;SDS011;67082;41.704;44.768;2024-02-28T02:05:15;19.65;;;10.00;;
77888;SDS011;67082;41.704;44.768;2024-02-28T02:07:43;20.35;;;9.73;;
77888;SDS011;67082;41.704;44.768;2024-02-28T02:10:12;23.00;;;10.13;;
77888;SDS011;67082;41.704;44.768;2024-02-28T02:12:40;17.30;;;9.20;;
77888;SDS011;67082;41.704;44.768;2024-02-28T02:15:09;23.45;;;9.95;;
77888;SDS011;67082;41.704;44.768;2024-02-28T02:17:37;21.45;;;9.70;;
77888;SDS011;67082;41.704;44.768;2024-02-28T02:20:06;19.08;;;9.05;;
77888;SDS011;67082;41.704;44.768;2024-02-28T02:22:38;19.17;;;9.27;;
77888;SDS011;67082;41.704;44.768;2024-02-28T02:25:06;18.30;;;9.15;;
77888;SDS011;67082;41.704;44.768;2024-02-28T02:27:35;18.98;;;9.93;;
77888;SDS011;67082;41.704;44.768;2024-02-28T02:30:03;21.63;;;9.52;;
77888;SDS011;67082;41.704;44.768;2024-02-28T02:32:32;22.58;;;9.80;;
77888;SDS011;67082;41.704;44.768;2024-02-28T02:35:01;21.25;;;10.65;;
77888;SDS011;67082;41.704;44.768;2024-02-28T02:37:30;18.63;;;9.82;;
77888;SDS011;67082;41.704;44.768;2024-02-28T02:40:02;24.30;;;10.60;;
77888;SDS011;67082;41.704;44.768;2024-02-28T02:42:31;23.83;;;10.38;;
77888;SDS011;67082;41.704;44.768;2024-02-28T02:44:59;23.65;;;10.48;;
77888;SDS011;67082;41.704;44.768;2024-02-28T02:47:27;23.70;;;11.27;;
77888;SDS011;67082;41.704;44.768;2024-02-28T02:49:55;19.40;;;10.85;;
77888;SDS011;67082;41.704;44.768;2024-02-28T02:52:23;22.80;;;10.43;;
77888;SDS011;67082;41.704;44.768;2024-02-28T02:54:52;21.90;;;10.82;;
77888;SDS011;67082;41.704;44.768;2024-02-28T02:57:20;22.23;;;10.85;;
77888;SDS011;67082;41.704;44.768;2024-02-28T02:59:48;22.02;;;10.23;;
77888;SDS011;67082;41.704;44.768;2024-02-28T03:02:16;20.05;;;10.20;;
77888;SDS011;67082;41.704;44.768;2024-02-28T03:04:45;19.55;;;10.73;;
77888;SDS011;67082;41.704;44.768;2024-02-28T03:07:13;19.98;;;10.52;;
77888;SDS011;67082;41.704;44.768;2024-02-28T03:09:41;23.05;;;10.80;;
77888;SDS011;67082;41.704;44.768;2024-02-28T03:12:09;21.42;;;11.45;;
77888;SDS011;67082;41.704;44.768;2024-02-28T03:14:38;26.35;;;12.05;;
77888;SDS011;67082;41.704;44.768;2024-02-28T03:17:06;23.60;;;11.23;;
77888;SDS011;67082;41.704;44.768;2024-02-28T03:19:34;23.45;;;11.32;;
77888;SDS011;67082;41.704;44.768;2024-02-28T03:22:03;20.35;;;11.25;;
77888;SDS011;67082;41.704;44.768;2024-02-28T03:24:31;21.30;;;11.43;;
77888;SDS011;67082;41.704;44.768;2024-02-28T03:27:02;21.67;;;10.95;;
77888;SDS011;67082;41.704;44.768;2024-02-28T03:29:31;21.88;;;11.30;;
77888;SDS011;67082;41.704;44.768;2024-02-28T03:31:59;26.25;;;11.80;;
77888;SDS011;67082;41.704;44.768;2024-02-28T03:34:27;24.98;;;11.38;;
77888;SDS011;67082;41.704;44.768;2024-02-28T03:36:55;20.55;;;11.38;;
77888;SDS011;67082;41.704;44.768;2024-02-28T03:39:23;20.90;;;11.60;;
77888;SDS011;67082;41.704;44.768;2024-02-28T03:41:52;32.00;;;15.85;;
77888;SDS011;67082;41.704;44.768;2024-02-28T03:44:20;23.35;;;12.25;;
77888;SDS011;67082;41.704;44.768;2024-02-28T03:46:49;22.17;;;12.25;;
77888;SDS011;67082;41.704;44.768;2024-02-28T03:49:17;23.83;;;13.15;;
77888;SDS011;67082;41.704;44.768;2024-02-28T03:51:45;26.17;;;13.70;;
77888;SDS011;67082;41.704;44.768;2024-02-28T03:54:13;21.10;;;11.60;;
77888;SDS011;67082;41.704;44.768;2024-02-28T03:56:42;27.63;;;12.55;;
77888;SDS011;67082;41.704;44.768;2024-02-28T03:59:10;23.33;;;12.27;;
77888;SDS011;67082;41.704;44.768;2024-02-28T04:01:38;28.25;;;12.85;;
77888;SDS011;67082;41.704;44.768;2024-02-28T04:04:07;29.02;;;12.77;;
77888;SDS011;67082;41.704;44.768;2024-02-28T04:06:35;56.78;;;24.23;;
77888;SDS011;67082;41.704;44.768;2024-02-28T04:09:04;26.88;;;13.88;;
77888;SDS011;67082;41.704;44.768;2024-02-28T04:11:32;28.70;;;14.57;;
77888;SDS011;67082;41.704;44.768;2024-02-28T04:14:01;31.65;;;16.58;;
77888;SDS011;67082;41.704;44.768;2024-02-28T04:16:30;26.58;;;13.63;;
77888;SDS011;67082;41.704;44.768;2024-02-28T04:18:58;31.65;;;13.88;;
77888;SDS011;67082;41.704;44.768;2024-02-28T04:21:26;23.83;;;12.70;;
77888;SDS011;67082;41.704;44.768;2024-02-28T04:23:55;28.00;;;14.23;;
77888;SDS011;67082;41.704;44.768;2024-02-28T04:26:23;27.80;;;13.40;;
77888;SDS011;67082;41.704;44.768;2024-02-28T04:28:52;24.98;;;12.38;;
77888;SDS011;67082;41.704;44.768;2024-02-28T04:31:20;41.63;;;13.73;;
77888;SDS011;67082;41.704;44.768;2024-02-28T04:33:48;29.45;;;11.95;;
77888;SDS011;67082;41.704;44.768;2024-02-28T04:36:17;27.77;;;12.05;;
77888;SDS011;67082;41.704;44.768;2024-02-28T04:38:45;24.73;;;12.38;;
77888;SDS011;67082;41.704;44.768;2024-02-28T04:41:13;31.30;;;12.75;;
77888;SDS011;67082;41.704;44.768;2024-02-28T04:43:44;25.83;;;12.77;;
77888;SDS011;67082;41.704;44.768;2024-02-28T04:46:12;29.63;;;12.48;;
77888;SDS011;67082;41.704;44.768;2024-02-28T04:48:41;24.65;;;12.70;;
77888;SDS011;67082;41.704;44.768;2024-02-28T04:51:09;27.88;;;12.73;;
77888;SDS011;67082;41.704;44.768;2024-02-28T04:53:38;27.65;;;13.32;;
77888;SDS011;67082;41.704;44.768;2024-02-28T04:56:07;29.80;;;15.07;;
77888;SDS011;67082;41.704;44.768;2024-02-28T04:58:36;29.63;;;13.40;;
77888;SDS011;67082;41.704;44.768;2024-02-28T05:01:04;27.00;;;13.13;;
77888;SDS011;67082;41.704;44.768;2024-02-28T05:03:35;26.75;;;13.10;;
77888;SDS011;67082;41.704;44.768;2024-02-28T05:06:04;27.63;;;13.55;;
77888;SDS011;67082;41.704;44.768;2024-02-28T05:08:32;29.48;;;13.45;;
77888;SDS011;67082;41.704;44.768;2024-02-28T05:11:01;27.33;;;14.10;;
77888;SDS011;67082;41.704;44.768;2024-02-28T05:13:29;28.25;;;13.25;;
77888;SDS011;67082;41.704;44.768;2024-02-28T05:15:57;33.15;;;12.75;;
77888;SDS011;67082;41.704;44.768;2024-02-28T05:18:26;28.73;;;13.18;;
77888;SDS011;67082;41.704;44.768;2024-02-28T05:20:54;29.35;;;12.68;;
77888;SDS011;67082;41.704;44.768;2024-02-28T05:23:23;28.05;;;12.80;;
77888;SDS011;67082;41.704;44.768;2024-02-28T05:25:51;32.80;;;13.00;;
77888;SDS011;67082;41.704;44.768;2024-02-28T05:28:19;30.20;;;13.55;;
77888;SDS011;67082;41.704;44.768;2024-02-28T05:30:47;33.85;;;13.68;;
77888;SDS011;67082;41.704;44.768;2024-02-28T05:33:17;31.00;;;14.27;;
77888;SDS011;67082;41.704;44.768;2024-02-28T05:35:46;36.47;;;13.80;;
77888;SDS011;67082;41.704;44.768;2024-02-28T05:38:14;32.67;;;14.23;;
77888;SDS011;67082;41.704;44.768;2024-02-28T05:40:42;32.97;;;13.73;;
77888;SDS011;67082;41.704;44.768;2024-02-28T05:43:10;27.50;;;12.48;;
77888;SDS011;67082;41.704;44.768;2024-02-28T05:45:38;22.60;;;11.32;;
77888;SDS011;67082;41.704;44.768;2024-02-28T05:48:07;26.75;;;11.70;;
77888;SDS011;67082;41.704;44.768;2024-02-28T05:50:35;27.33;;;11.18;;
77888;SDS011;67082;41.704;44.768;2024-02-28T05:53:04;21.98;;;11.18;;
77888;SDS011;67082;41.704;44.768;2024-02-28T05:55:32;28.45;;;11.88;;
77888;SDS011;67082;41.704;44.768;2024-02-28T05:58:00;27.40;;;11.85;;
77888;SDS011;67082;41.704;44.768;2024-02-28T06:00:29;30.38;;;11.30;;
77888;SDS011;67082;41.704;44.768;2024-02-28T06:02:57;27.23;;;11.20;;
77888;SDS011;67082;41.704;44.768;2024-02-28T06:05:25;32.85;;;10.70;;
77888;SDS011;67082;41.704;44.768;2024-02-28T06:07:54;26.63;;;12.63;;
77888;SDS011;67082;41.704;44.768;2024-02-28T06:10:22;25.27;;;12.20;;
77888;SDS011;67082;41.704;44.768;2024-02-28T06:12:50;28.23;;;12.43;;
77888;SDS011;67082;41.704;44.768;2024-02-28T06:15:19;31.90;;;13.30;;
77888;SDS011;67082;41.704;44.768;2024-02-28T06:17:47;27.10;;;13.15;;
77888;SDS011;67082;41.704;44.768;2024-02-28T06:20:15;29.85;;;13.45;;
77888;SDS011;67082;41.704;44.768;2024-02-28T06:22:44;32.47;;;14.68;;
77888;SDS011;67082;41.704;44.768;2024-02-28T06:25:11;30.17;;;14.38;;
77888;SDS011;67082;41.704;44.768;2024-02-28T06:27:47;39.73;;;14.27;;
77888;SDS011;67082;41.704;44.768;2024-02-28T06:30:16;31.38;;;13.70;;
77888;SDS011;67082;41.704;44.768;2024-02-28T06:32:47;32.58;;;14.30;;
77888;SDS011;67082;41.704;44.768;2024-02-28T06:35:15;30.10;;;14.13;;
77888;SDS011;67082;41.704;44.768;2024-02-28T06:37:44;34.47;;;15.32;;
77888;SDS011;67082;41.704;44.768;2024-02-28T06:40:17;35.50;;;14.48;;
77888;SDS011;67082;41.704;44.768;2024-02-28T06:42:46;33.97;;;12.98;;
77888;SDS011;67082;41.704;44.768;2024-02-28T06:45:14;29.27;;;13.18;;
77888;SDS011;67082;41.704;44.768;2024-02-28T06:47:42;27.02;;;12.82;;
77888;SDS011;67082;41.704;44.768;2024-02-28T06:50:12;27.58;;;12.82;;
77888;SDS011;67082;41.704;44.768;2024-02-28T06:52:41;30.73;;;12.82;;
77888;SDS011;67082;41.704;44.768;2024-02-28T06:55:09;27.58;;;10.93;;
77888;SDS011;67082;41.704;44.768;2024-02-28T06:57:39;27.77;;;11.60;;
77888;SDS011;67082;41.704;44.768;2024-02-28T07:00:09;23.75;;;11.65;;
77888;SDS011;67082;41.704;44.768;2024-02-28T07:02:47;25.85;;;11.85;;
77888;SDS011;67082;41.704;44.768;2024-02-28T07:05:15;25.13;;;11.77;;
77888;SDS011;67082;41.704;44.768;2024-02-28T07:07:44;25.15;;;10.68;;
77888;SDS011;67082;41.704;44.768;2024-02-28T07:10:11;25.40;;;11.05;;
77888;SDS011;67082;41.704;44.768;2024-02-28T07:12:40;23.75;;;10.80;;
77888;SDS011;67082;41.704;44.768;2024-02-28T07:15:08;23.20;;;9.82;;
77888;SDS011;67082;41.704;44.768;2024-02-28T07:17:36;19.42;;;10.73;;
77888;SDS011;67082;41.704;44.768;2024-02-28T07:20:05;20.33;;;10.25;;
77888;SDS011;67082;41.704;44.768;2024-02-28T07:22:35;21.35;;;9.82;;
77888;SDS011;67082;41.704;44.768;2024-02-28T07:25:03;19.15;;;9.27;;
77888;SDS011;67082;41.704;44.768;2024-02-28T07:27:32;23.33;;;10.15;;
77888;SDS011;67082;41.704;44.768;2024-02-28T07:30:01;22.40;;;9.90;;
77888;SDS011;67082;41.704;44.768;2024-02-28T07:32:31;16.73;;;9.63;;
77888;SDS011;67082;41.704;44.768;2024-02-28T07:35:03;20.83;;;9.77;;
77888;SDS011;67082;41.704;44.768;2024-02-28T07:37:31;21.15;;;9.18;;
77888;SDS011;67082;41.704;44.768;2024-02-28T07:40:00;22.15;;;9.90;;
77888;SDS011;67082;41.704;44.768;2024-02-28T07:42:30;22.63;;;9.75;;
77888;SDS011;67082;41.704;44.768;2024-02-28T07:44:58;23.20;;;9.80;;
77888;SDS011;67082;41.704;44.768;2024-02-28T07:47:26;19.00;;;9.07;;
77888;SDS011;67082;41.704;44.768;2024-02-28T07:49:54;16.35;;;8.43;;
77888;SDS011;67082;41.704;44.768;2024-02-28T07:52:23;15.38;;;9.02;;
77888;SDS011;67082;41.704;44.768;2024-02-28T07:54:51;20.50;;;9.52;;
77888;SDS011;67082;41.704;44.768;2024-02-28T07:57:19;19.45;;;9.55;;
77888;SDS011;67082;41.704;44.768;2024-02-28T07:59:49;16.80;;;9.10;;
77888;SDS011;67082;41.704;44.768;2024-02-28T08:02:17;19.90;;;9.75;;
77888;SDS011;67082;41.704;44.768;2024-02-28T08:04:48;21.52;;;9.85;;
77888;SDS011;67082;41.704;44.768;2024-02-28T08:07:18;18.48;;;9.02;;
77888;SDS011;67082;41.704;44.768;2024-02-28T08:09:46;21.27;;;10.00;;
77888;SDS011;67082;41.704;44.768;2024-02-28T08:12:15;21.75;;;8.85;;
77888;SDS011;67082;41.704;44.768;2024-02-28T08:14:43;19.10;;;9.55;;
77888;SDS011;67082;41.704;44.768;2024-02-28T08:17:11;23.85;;;10.27;;
77888;SDS011;67082;41.704;44.768;2024-02-28T08:19:41;20.30;;;9.60;;
77888;SDS011;67082;41.704;44.768;2024-02-28T08:22:10;19.63;;;9.38;;
77888;SDS011;67082;41.704;44.768;2024-02-28T08:24:38;22.35;;;9.57;;
77888;SDS011;67082;41.704;44.768;2024-02-28T08:27:07;22.38;;;10.20;;
77888;SDS011;67082;41.704;44.768;2024-02-28T08:29:35;25.98;;;9.50;;
77888;SDS011;67082;41.704;44.768;2024-02-28T08:32:03;26.15;;;9.90;;
77888;SDS011;67082;41.704;44.768;2024-02-28T08:34:31;19.73;;;10.05;;
77888;SDS011;67082;41.704;44.768;2024-02-28T08:37:00;19.25;;;10.20;;
77888;SDS011;67082;41.704;44.768;2024-02-28T08:39:28;20.27;;;9.75;;
77888;SDS011;67082;41.704;44.768;2024-02-28T08:41:56;21.52;;;10.27;;
77888;SDS011;67082;41.704;44.768;2024-02-28T08:44:24;20.35;;;10.43;;
77888;SDS011;67082;41.704;44.768;2024-02-28T08:46:54;20.98;;;10.45;;
77888;SDS011;67082;41.704;44.768;2024-02-28T08:49:22;25.33;;;10.93;;
77888;SDS011;67082;41.704;44.768;2024-02-28T08:51:50;26.63;;;11.65;;
77888;SDS011;67082;41.704;44.768;2024-02-28T08:54:18;23.50;;;10.68;;
77888;SDS011;67082;41.704;44.768;2024-02-28T08:56:47;23.70;;;11.07;;
77888;SDS011;67082;41.704;44.768;2024-02-28T08:59:26;22.23;;;10.82;;
77888;SDS011;67082;41.704;44.768;2024-02-28T09:01:54;22.17;;;10.85;;
77888;SDS011;67082;41.704;44.768;2024-02-28T09:04:22;23.70;;;11.02;;
77888;SDS011;67082;41.704;44.768;2024-02-28T09:06:51;22.95;;;11.55;;
77888;SDS011;67082;41.704;44.768;2024-02-28T09:09:20;25.75;;;11.82;;
77888;SDS011;67082;41.704;44.768;2024-02-28T09:11:49;25.75;;;11.73;;
77888;SDS011;67082;41.704;44.768;2024-02-28T09:14:17;23.30;;;11.30;;
77888;SDS011;67082;41.704;44.768;2024-02-28T09:16:45;22.67;;;11.75;;
77888;SDS011;67082;41.704;44.768;2024-02-28T09:19:13;25.00;;;12.30;;
77888;SDS011;67082;41.704;44.768;2024-02-28T09:24:42;24.65;;;11.02;;
77888;SDS011;67082;41.704;44.768;2024-02-28T09:27:11;34.08;;;12.75;;
77888;SDS011;67082;41.704;44.768;2024-02-28T09:29:40;25.00;;;12.32;;
77888;SDS011;67082;41.704;44.768;2024-02-28T09:32:08;27.27;;;12.38;;
77888;SDS011;67082;41.704;44.768;2024-02-28T09:34:37;28.27;;;11.57;;
77888;SDS011;67082;41.704;44.768;2024-02-28T09:37:05;26.17;;;12.07;;
77888;SDS011;67082;41.704;44.768;2024-02-28T09:39:33;31.83;;;12.43;;
77888;SDS011;67082;41.704;44.768;2024-02-28T09:42:02;29.27;;;12.73;;
77888;SDS011;67082;41.704;44.768;2024-02-28T09:44:30;31.35;;;13.52;;
77888;SDS011;67082;41.704;44.768;2024-02-28T09:46:58;28.08;;;12.63;;
77888;SDS011;67082;41.704;44.768;2024-02-28T09:49:26;27.20;;;12.00;;
77888;SDS011;67082;41.704;44.768;2024-02-28T09:51:56;25.55;;;11.70;;
77888;SDS011;67082;41.704;44.768;2024-02-28T09:54:25;24.77;;;11.95;;
77888;SDS011;67082;41.704;44.768;2024-02-28T09:56:53;27.83;;;12.15;;
77888;SDS011;67082;41.704;44.768;2024-02-28T09:59:23;26.88;;;12.13;;
77888;SDS011;67082;41.704;44.768;2024-02-28T10:02:06;31.05;;;12.60;;
77888;SDS011;67082;41.704;44.768;2024-02-28T10:04:37;26.50;;;12.07;;
77888;SDS011;67082;41.704;44.768;2024-02-28T10:07:10;28.40;;;11.90;;
77888;SDS011;67082;41.704;44.768;2024-02-28T10:09:42;27.33;;;12.27;;
77888;SDS011;67082;41.704;44.768;2024-02-28T10:12:11;25.55;;;11.63;;
77888;SDS011;67082;41.704;44.768;2024-02-28T10:14:39;29.08;;;12.07;;
77888;SDS011;67082;41.704;44.768;2024-02-28T10:17:07;28.52;;;11.88;;
77888;SDS011;67082;41.704;44.768;2024-02-28T10:19:35;29.48;;;12.35;;
77888;SDS011;67082;41.704;44.768;2024-02-28T10:22:04;23.73;;;11.90;;
77888;SDS011;67082;41.704;44.768;2024-02-28T10:24:33;27.17;;;11.88;;
77888;SDS011;67082;41.704;44.768;2024-02-28T10:27:02;24.58;;;11.40;;
77888;SDS011;67082;41.704;44.768;2024-02-28T10:29:30;25.95;;;11.57;;
77888;SDS011;67082;41.704;44.768;2024-02-28T10:32:01;25.30;;;11.88;;
77888;SDS011;67082;41.704;44.768;2024-02-28T10:34:30;26.83;;;12.30;;
77888;SDS011;67082;41.704;44.768;2024-02-28T10:36:59;23.52;;;11.50;;
77888;SDS011;67082;41.704;44.768;2024-02-28T10:39:29;27.52;;;12.43;;
77888;SDS011;67082;41.704;44.768;2024-02-28T10:41:59;28.30;;;12.60;;
77888;SDS011;67082;41.704;44.768;2024-02-28T10:44:28;29.88;;;12.43;;
77888;SDS011;67082;41.704;44.768;2024-02-28T10:47:00;23.08;;;12.43;;
77888;SDS011;67082;41.704;44.768;2024-02-28T10:49:31;25.10;;;11.80;;
77888;SDS011;67082;41.704;44.768;2024-02-28T10:51:59;26.73;;;12.82;;
77888;SDS011;67082;41.704;44.768;2024-02-28T10:54:31;26.17;;;11.52;;
77888;SDS011;67082;41.704;44.768;2024-02-28T10:57:04;24.35;;;11.63;;
77888;SDS011;67082;41.704;44.768;2024-02-28T10:59:33;22.77;;;11.60;;
77888;SDS011;67082;41.704;44.768;2024-02-28T11:02:04;30.92;;;11.75;;
77888;SDS011;67082;41.704;44.768;2024-02-28T11:04:32;24.00;;;11.48;;
77888;SDS011;67082;41.704;44.768;2024-02-28T11:07:00;29.40;;;12.73;;
77888;SDS011;67082;41.704;44.768;2024-02-28T11:09:29;29.60;;;12.38;;
77888;SDS011;67082;41.704;44.768;2024-02-28T11:12:00;24.90;;;12.60;;
77888;SDS011;67082;41.704;44.768;2024-02-28T11:14:32;25.23;;;11.68;;
77888;SDS011;67082;41.704;44.768;2024-02-28T11:17:04;27.33;;;12.00;;
77888;SDS011;67082;41.704;44.768;2024-02-28T11:19:33;23.15;;;11.38;;
77888;SDS011;67082;41.704;44.768;2024-02-28T11:22:04;22.77;;;11.23;;
77888;SDS011;67082;41.704;44.768;2024-02-28T11:24:34;24.63;;;12.23;;
77888;SDS011;67082;41.704;44.768;2024-02-28T11:27:05;24.50;;;12.07;;
77888;SDS011;67082;41.704;44.768;2024-02-28T11:29:34;23.70;;;11.45;;
77888;SDS011;67082;41.704;44.768;2024-02-28T11:32:03;26.88;;;12.60;;
77888;SDS011;67082;41.704;44.768;2024-02-28T11:34:33;25.70;;;11.57;;
77888;SDS011;67082;41.704;44.768;2024-02-28T11:37:02;24.15;;;12.15;;
77888;SDS011;67082;41.704;44.768;2024-02-28T11:39:31;26.10;;;12.20;;
77888;SDS011;67082;41.704;44.768;2024-02-28T11:42:12;26.73;;;11.95;;
77888;SDS011;67082;41.704;44.768;2024-02-28T11:44:42;25.50;;;11.77;;
77888;SDS011;67082;41.704;44.768;2024-02-28T11:47:11;23.10;;;11.70;;
77888;SDS011;67082;41.704;44.768;2024-02-28T11:49:40;22.73;;;12.15;;
77888;SDS011;67082;41.704;44.768;2024-02-28T11:52:09;24.00;;;12.35;;
77888;SDS011;67082;41.704;44.768;2024-02-28T11:54:38;26.65;;;12.63;;
77888;SDS011;67082;41.704;44.768;2024-02-28T11:57:07;28.05;;;13.40;;
77888;SDS011;67082;41.704;44.768;2024-02-28T11:59:37;25.52;;;12.30;;
77888;SDS011;67082;41.704;44.768;2024-02-28T12:02:12;27.13;;;12.57;;
77888;SDS011;67082;41.704;44.768;2024-02-28T12:04:41;26.20;;;12.43;;
77888;SDS011;67082;41.704;44.768;2024-02-28T12:07:10;25.05;;;12.25;;
77888;SDS011;67082;41.704;44.768;2024-02-28T12:09:40;25.35;;;12.05;;
77888;SDS011;67082;41.704;44.768;2024-02-28T12:12:11;25.45;;;12.43;;
77888;SDS011;67082;41.704;44.768;2024-02-28T12:14:40;24.42;;;11.57;;
77888;SDS011;67082;41.704;44.768;2024-02-28T12:17:09;26.20;;;12.80;;
77888;SDS011;67082;41.704;44.768;2024-02-28T12:19:38;25.23;;;12.45;;
77888;SDS011;67082;41.704;44.768;2024-02-28T12:22:07;24.42;;;12.70;;
77888;SDS011;67082;41.704;44.768;2024-02-28T12:24:37;27.02;;;13.10;;
77888;SDS011;67082;41.704;44.768;2024-02-28T12:27:05;23.17;;;12.15;;
77888;SDS011;67082;41.704;44.768;2024-02-28T12:29:33;25.33;;;12.30;;
77888;SDS011;67082;41.704;44.768;2024-02-28T12:32:02;21.98;;;12.45;;
77888;SDS011;67082;41.704;44.768;2024-02-28T12:34:30;24.73;;;11.88;;
77888;SDS011;67082;41.704;44.768;2024-02-28T12:36:58;28.58;;;12.07;;
77888;SDS011;67082;41.704;44.768;2024-02-28T12:39:27;27.83;;;12.95;;
77888;SDS011;67082;41.704;44.768;2024-02-28T12:41:55;29.08;;;13.05;;
77888;SDS011;67082;41.704;44.768;2024-02-28T12:44:23;23.15;;;12.63;;
77888;SDS011;67082;41.704;44.768;2024-02-28T12:46:52;24.38;;;12.82;;
77888;SDS011;67082;41.704;44.768;2024-02-28T12:49:20;27.90;;;12.75;;
77888;SDS011;67082;41.704;44.768;2024-02-28T12:51:48;24.80;;;13.15;;
77888;SDS011;67082;41.704;44.768;2024-02-28T12:54:17;24.98;;;12.57;;
77888;SDS011;67082;41.704;44.768;2024-02-28T12:56:47;24.73;;;12.27;;
77888;SDS011;67082;41.704;44.768;2024-02-28T12:59:16;24.52;;;12.07;;
77888;SDS011;67082;41.704;44.768;2024-02-28T13:01:44;26.90;;;11.95;;
77888;SDS011;67082;41.704;44.768;2024-02-28T13:04:15;21.10;;;12.27;;
77888;SDS011;67082;41.704;44.768;2024-02-28T13:06:43;19.83;;;11.55;;
77888;SDS011;67082;41.704;44.768;2024-02-28T13:09:11;25.77;;;12.63;;
77888;SDS011;67082;41.704;44.768;2024-02-28T13:11:43;29.73;;;11.95;;
77888;SDS011;67082;41.704;44.768;2024-02-28T13:14:11;22.70;;;11.65;;
77888;SDS011;67082;41.704;44.768;2024-02-28T13:16:39;24.23;;;12.85;;
77888;SDS011;67082;41.704;44.768;2024-02-28T13:19:07;29.27;;;12.45;;
77888;SDS011;67082;41.704;44.768;2024-02-28T13:21:36;29.33;;;12.52;;
77888;SDS011;67082;41.704;44.768;2024-02-28T13:24:04;28.80;;;13.85;;
77888;SDS011;67082;41.704;44.768;2024-02-28T13:26:33;29.00;;;13.05;;
77888;SDS011;67082;41.704;44.768;2024-02-28T13:29:01;23.27;;;12.45;;
77888;SDS011;67082;41.704;44.768;2024-02-28T13:31:29;25.77;;;12.45;;
77888;SDS011;67082;41.704;44.768;2024-02-28T13:33:58;24.10;;;11.98;;
77888;SDS011;67082;41.704;44.768;2024-02-28T13:36:26;23.45;;;12.52;;
77888;SDS011;67082;41.704;44.768;2024-02-28T13:38:54;21.90;;;12.73;;
77888;SDS011;67082;41.704;44.768;2024-02-28T13:41:23;25.98;;;13.35;;
77888;SDS011;67082;41.704;44.768;2024-02-28T13:43:51;23.45;;;11.90;;
77888;SDS011;67082;41.704;44.768;2024-02-28T13:46:19;24.13;;;12.43;;
77888;SDS011;67082;41.704;44.768;2024-02-28T13:48:47;23.63;;;12.30;;
77888;SDS011;67082;41.704;44.768;2024-02-28T13:51:16;24.33;;;12.23;;
77888;SDS011;67082;41.704;44.768;2024-02-28T13:53:44;22.65;;;12.00;;
77888;SDS011;67082;41.704;44.768;2024-02-28T13:56:12;25.02;;;12.38;;
77888;SDS011;67082;41.704;44.768;2024-02-28T13:58:40;24.55;;;11.98;;
77888;SDS011;67082;41.704;44.768;2024-02-28T14:01:19;23.85;;;11.57;;
77888;SDS011;67082;41.704;44.768;2024-02-28T14:03:48;24.92;;;11.98;;
77888;SDS011;67082;41.704;44.768;2024-02-28T14:06:17;23.40;;;11.68;;
77888;SDS011;67082;41.704;44.768;2024-02-28T14:08:45;24.63;;;12.02;;
77888;SDS011;67082;41.704;44.768;2024-02-28T14:11:14;27.48;;;12.70;;
77888;SDS011;67082;41.704;44.768;2024-02-28T14:13:45;21.40;;;11.90;;
77888;SDS011;67082;41.704;44.768;2024-02-28T14:16:14;22.05;;;11.80;;
77888;SDS011;67082;41.704;44.768;2024-02-28T14:18:43;21.42;;;11.90;;
77888;SDS011;67082;41.704;44.768;2024-02-28T14:21:13;21.25;;;11.90;;
77888;SDS011;67082;41.704;44.768;2024-02-28T14:23:41;23.65;;;12.18;;